createdAt,value
2023-04-24T00:01:03.473Z,42.90
2023-04-24T00:03:31.096Z,42.80
2023-04-24T00:05:58.069Z,43.00
2023-04-24T00:08:24.968Z,42.90
2023-04-24T00:10:53.638Z,43.00
2023-04-24T00:13:20.367Z,42.70
2023-04-24T00:15:47.133Z,42.70
2023-04-24T00:18:13.908Z,42.50
2023-04-24T00:20:40.774Z,42.40
2023-04-24T00:23:07.903Z,42.60
2023-04-24T00:25:34.648Z,42.40
2023-04-24T00:28:01.478Z,42.40
2023-04-24T00:30:28.223Z,42.40
2023-04-24T00:32:54.963Z,42.50
2023-04-24T00:35:21.717Z,42.50
2023-04-24T00:37:48.521Z,42.50
2023-04-24T00:40:15.346Z,42.80
2023-04-24T00:42:42.715Z,42.80
2023-04-24T00:45:09.804Z,42.60
2023-04-24T00:47:37.030Z,42.50
2023-04-24T00:50:05.611Z,42.60
2023-04-24T00:52:33.518Z,42.70
2023-04-24T00:55:00.540Z,42.90
2023-04-24T00:57:27.664Z,42.80
2023-04-24T00:59:54.784Z,43.10
2023-04-24T01:02:23.613Z,43.20
2023-04-24T01:04:53.982Z,43.20
2023-04-24T01:07:22.106Z,43.20
2023-04-24T01:09:52.201Z,43.10
2023-04-24T01:12:19.860Z,43.20
2023-04-24T01:14:47.104Z,43.20
2023-04-24T01:17:13.975Z,42.90
2023-04-24T01:19:41.434Z,42.80
2023-04-24T01:22:13.768Z,42.80
2023-04-24T01:24:40.699Z,42.70
2023-04-24T01:27:08.155Z,42.60
2023-04-24T01:29:36.246Z,42.30
2023-04-24T01:32:04.450Z,42.10
2023-04-24T01:34:31.274Z,42.20
2023-04-24T01:36:58.224Z,42.30
2023-04-24T01:39:26.558Z,42.50
2023-04-24T01:41:54.648Z,42.20
2023-04-24T01:44:22.213Z,42.40
2023-04-24T01:46:49.179Z,42.40
2023-04-24T01:49:16.582Z,42.40
2023-04-24T01:51:43.372Z,42.20
2023-04-24T01:54:10.169Z,42.10
2023-04-24T01:56:40.399Z,42.20
2023-04-24T01:59:08.347Z,42.20
2023-04-24T02:01:38.882Z,42.10
2023-04-24T02:04:07.188Z,42.40
2023-04-24T02:06:34.073Z,42.20
2023-04-24T02:09:01.345Z,42.30
2023-04-24T02:11:28.050Z,42.10
2023-04-24T02:13:54.806Z,42.20
2023-04-24T02:16:21.618Z,42.20
2023-04-24T02:18:48.423Z,42.20
2023-04-24T02:21:15.512Z,42.50
2023-04-24T02:23:42.578Z,43.30
2023-04-24T02:26:09.441Z,42.70
2023-04-24T02:28:36.228Z,42.80
2023-04-24T02:31:03.059Z,42.80
2023-04-24T02:33:29.868Z,42.90
2023-04-24T02:35:56.597Z,42.90
2023-04-24T02:38:23.488Z,42.90
2023-04-24T02:40:50.204Z,42.90
2023-04-24T02:43:16.885Z,42.90
2023-04-24T02:45:43.691Z,42.80
2023-04-24T02:48:10.563Z,43.00
2023-04-24T02:50:37.271Z,43.10
2023-04-24T02:53:04.148Z,43.20
2023-04-24T02:55:31.497Z,43.20
2023-04-24T02:57:58.219Z,43.40
2023-04-24T03:00:25.229Z,43.70
2023-04-24T03:02:52.095Z,43.40
2023-04-24T03:05:19.003Z,43.80
2023-04-24T03:07:46.516Z,44.00
2023-04-24T03:10:13.377Z,43.70
2023-04-24T03:12:40.299Z,43.70
2023-04-24T03:15:07.751Z,43.90
2023-04-24T03:17:34.483Z,44.10
2023-04-24T03:20:01.279Z,44.10
2023-04-24T03:22:27.963Z,44.30
2023-04-24T03:24:55.951Z,44.50
2023-04-24T03:27:22.725Z,44.50
2023-04-24T03:29:52.901Z,44.80
2023-04-24T03:32:19.600Z,44.80
2023-04-24T03:34:46.403Z,44.80
2023-04-24T03:37:13.606Z,44.60
2023-04-24T03:39:40.473Z,45.00
2023-04-24T03:42:07.454Z,44.80
2023-04-24T03:44:34.115Z,45.00
2023-04-24T03:47:01.080Z,45.00
2023-04-24T03:49:27.867Z,45.30
2023-04-24T03:51:54.684Z,45.00
2023-04-24T03:54:21.447Z,44.90
2023-04-24T03:56:48.202Z,45.00
2023-04-24T03:59:14.917Z,45.10
2023-04-24T04:01:43.985Z,44.90
2023-04-24T04:04:11.088Z,45.30
2023-04-24T04:06:38.139Z,45.10
2023-04-24T04:09:04.859Z,45.20
2023-04-24T04:11:31.703Z,45.00
2023-04-24T04:13:58.393Z,45.50
2023-04-24T04:16:25.406Z,44.80
2023-04-24T04:18:52.127Z,44.80
2023-04-24T04:21:18.871Z,44.70
2023-04-24T04:23:46.241Z,44.90
2023-04-24T04:26:13.665Z,45.30
2023-04-24T04:28:40.489Z,45.50
2023-04-24T04:31:08.689Z,45.30
2023-04-24T04:33:37.100Z,45.10
2023-04-24T04:36:04.825Z,45.20
2023-04-24T04:38:31.616Z,45.00
2023-04-24T04:40:58.548Z,45.00
2023-04-24T04:43:26.150Z,45.00
2023-04-24T04:45:53.633Z,45.40
2023-04-24T04:48:20.391Z,45.00
2023-04-24T04:50:47.162Z,44.80
2023-04-24T04:53:13.890Z,44.70
2023-04-24T04:55:40.612Z,44.60
2023-04-24T04:58:07.434Z,44.60
2023-04-24T05:00:36.735Z,45.10
2023-04-24T05:03:19.154Z,45.50
2023-04-24T05:05:47.874Z,45.40
2023-04-24T05:08:25.769Z,45.30
2023-04-24T05:10:54.220Z,45.40
2023-04-24T05:13:28.368Z,45.50
2023-04-24T05:16:02.979Z,45.40
2023-04-24T05:18:29.679Z,45.70
2023-04-24T05:20:56.713Z,45.50
2023-04-24T05:23:23.503Z,45.40
2023-04-24T05:25:50.377Z,45.30
2023-04-24T05:28:17.120Z,45.60
2023-04-24T05:30:43.872Z,45.40
2023-04-24T05:33:10.940Z,45.40
2023-04-24T05:35:37.795Z,45.00
2023-04-24T05:38:04.488Z,45.10
2023-04-24T05:40:31.370Z,45.30
2023-04-24T05:42:58.063Z,45.40
2023-04-24T05:45:24.843Z,45.50
2023-04-24T05:47:53.538Z,45.50
2023-04-24T05:50:20.389Z,45.70
2023-04-24T05:52:47.167Z,46.10
2023-04-24T05:55:14.483Z,46.20
2023-04-24T05:57:41.418Z,47.10
2023-04-24T06:00:09.353Z,47.00
2023-04-24T06:02:36.244Z,47.00
2023-04-24T06:05:03.335Z,47.50
2023-04-24T06:07:30.216Z,47.40
2023-04-24T06:09:57.761Z,47.60
2023-04-24T06:12:24.432Z,47.80
2023-04-24T06:14:51.148Z,47.70
2023-04-24T06:17:17.936Z,47.90
2023-04-24T06:19:44.894Z,48.10
2023-04-24T06:22:11.878Z,48.30
2023-04-24T06:24:38.687Z,48.10
2023-04-24T06:27:05.465Z,48.10
2023-04-24T06:29:32.202Z,48.20
2023-04-24T06:31:59.029Z,48.30
2023-04-24T06:34:25.969Z,48.00
2023-04-24T06:36:52.980Z,47.80
2023-04-24T06:39:19.764Z,48.00
2023-04-24T06:41:46.490Z,48.00
2023-04-24T06:44:13.297Z,48.00
2023-04-24T06:46:41.764Z,48.30
2023-04-24T06:49:08.746Z,48.20
2023-04-24T06:51:36.032Z,48.20
2023-04-24T06:54:02.947Z,48.30
2023-04-24T06:56:30.465Z,48.40
2023-04-24T06:58:57.662Z,48.80
2023-04-24T07:01:24.373Z,48.70
2023-04-24T07:03:51.439Z,48.50
2023-04-24T07:06:19.688Z,48.90
2023-04-24T07:08:47.578Z,48.90
2023-04-24T07:11:14.411Z,48.70
2023-04-24T07:13:42.978Z,48.70
2023-04-24T07:16:10.805Z,48.70
2023-04-24T07:18:38.479Z,49.00
2023-04-24T07:21:05.492Z,49.20
2023-04-24T07:23:32.398Z,49.10
2023-04-24T07:25:59.236Z,49.20
2023-04-24T07:28:26.542Z,49.60
2023-04-24T07:30:55.099Z,49.60
2023-04-24T07:33:22.138Z,49.30
2023-04-24T07:35:49.607Z,49.40
2023-04-24T07:38:16.349Z,49.40
2023-04-24T07:40:43.246Z,49.70
2023-04-24T07:43:09.926Z,49.20
2023-04-24T07:45:38.537Z,49.60
2023-04-24T07:48:06.318Z,49.50
2023-04-24T07:50:34.372Z,49.40
2023-04-24T07:53:01.309Z,49.40
2023-04-24T07:55:28.428Z,49.30
2023-04-24T07:57:55.763Z,49.30
2023-04-24T08:00:22.666Z,49.50
2023-04-24T08:02:49.770Z,49.20
2023-04-24T08:05:16.921Z,49.40
2023-04-24T08:07:43.979Z,49.40
2023-04-24T08:10:14.384Z,49.20
2023-04-24T08:12:42.159Z,49.30
2023-04-24T08:15:09.484Z,49.30
2023-04-24T08:17:36.905Z,49.60
2023-04-24T08:20:06.131Z,49.30
2023-04-24T08:22:32.913Z,49.50
2023-04-24T08:25:01.645Z,49.20
2023-04-24T08:27:28.783Z,49.20
2023-04-24T08:29:55.917Z,49.40
2023-04-24T08:32:22.866Z,49.30
2023-04-24T08:34:50.053Z,49.20
2023-04-24T08:37:16.918Z,49.20
2023-04-24T08:39:44.203Z,49.40
2023-04-24T08:42:13.864Z,49.30
2023-04-24T08:44:40.735Z,49.40
2023-04-24T08:47:09.034Z,49.30
2023-04-24T08:49:37.653Z,49.20
2023-04-24T08:52:04.643Z,49.00
2023-04-24T08:54:32.899Z,49.10
2023-04-24T08:57:05.091Z,49.10
2023-04-24T08:59:32.630Z,49.30
2023-04-24T09:02:00.323Z,49.60
2023-04-24T09:04:28.778Z,49.80
2023-04-24T09:06:58.697Z,49.50
2023-04-24T09:09:26.627Z,49.70
2023-04-24T09:11:56.463Z,49.80
2023-04-24T09:14:24.732Z,49.90
2023-04-24T09:16:52.164Z,49.90
2023-04-24T09:19:19.040Z,50.30
2023-04-24T09:21:49.317Z,50.20
2023-04-24T09:24:23.387Z,50.30
2023-04-24T09:26:58.731Z,50.50
2023-04-24T09:29:25.866Z,50.50
2023-04-24T09:31:52.704Z,50.60
2023-04-24T09:34:28.118Z,50.80
2023-04-24T09:36:55.365Z,51.00
2023-04-24T09:39:22.122Z,51.40
2023-04-24T09:41:53.550Z,51.10
2023-04-24T09:44:22.436Z,51.60
2023-04-24T09:46:54.551Z,51.60
2023-04-24T09:49:28.946Z,51.90
2023-04-24T09:52:10.867Z,51.80
2023-04-24T09:54:38.733Z,51.90
2023-04-24T09:57:05.890Z,52.00
2023-04-24T09:59:32.575Z,51.90
2023-04-24T10:02:00.703Z,52.20
2023-04-24T10:04:29.753Z,52.40
2023-04-24T10:06:58.061Z,52.90
2023-04-24T10:09:27.448Z,53.00
2023-04-24T10:11:55.783Z,53.00
2023-04-24T10:14:24.682Z,53.20
2023-04-24T10:16:55.109Z,53.30
2023-04-24T10:19:21.920Z,53.50
2023-04-24T10:21:48.691Z,53.40
2023-04-24T10:24:19.546Z,52.90
2023-04-24T10:26:48.974Z,52.90
2023-04-24T10:29:17.697Z,52.90
2023-04-24T10:31:48.444Z,53.10
2023-04-24T10:34:18.921Z,53.10
2023-04-24T10:36:57.842Z,53.10
2023-04-24T10:39:27.246Z,53.00
2023-04-24T10:41:58.753Z,53.40
2023-04-24T10:44:26.054Z,52.70
2023-04-24T10:46:57.219Z,52.90
2023-04-24T10:49:31.920Z,52.90
2023-04-24T10:52:06.473Z,53.00
2023-04-24T10:54:41.810Z,52.90
2023-04-24T10:57:21.308Z,53.10
2023-04-24T11:00:07.868Z,53.40
2023-04-24T11:02:39.373Z,53.20
2023-04-24T11:05:06.906Z,53.60
2023-04-24T11:08:16.954Z,53.40
2023-04-24T11:10:48.519Z,53.80
2023-04-24T11:13:22.873Z,53.60
2023-04-24T11:16:26.717Z,53.50
2023-04-24T11:19:01.413Z,53.50
2023-04-24T11:21:46.806Z,53.50
2023-04-24T11:24:27.839Z,53.80
2023-04-24T11:26:58.966Z,53.60
2023-04-24T11:29:46.186Z,54.00
2023-04-24T11:32:20.448Z,53.70
2023-04-24T11:34:49.841Z,54.00
2023-04-24T11:37:16.859Z,54.10
2023-04-24T11:39:43.705Z,53.90
2023-04-24T11:42:11.156Z,53.80
2023-04-24T11:44:38.584Z,53.80
2023-04-24T11:47:09.503Z,54.10
2023-04-24T11:49:39.556Z,53.70
2023-04-24T11:52:07.441Z,53.60
2023-04-24T11:54:34.733Z,53.40
2023-04-24T11:57:05.814Z,53.30
2023-04-24T11:59:37.763Z,53.20
2023-04-24T12:02:05.533Z,53.30
2023-04-24T12:04:42.926Z,53.20
2023-04-24T12:07:10.349Z,53.20
2023-04-24T12:09:48.690Z,53.40
2023-04-24T12:12:18.802Z,53.20
2023-04-24T12:14:50.813Z,53.10
2023-04-24T12:17:18.261Z,53.20
2023-04-24T12:19:49.213Z,52.60
2023-04-24T12:22:16.149Z,52.40
2023-04-24T12:25:03.609Z,52.60
2023-04-24T12:27:34.405Z,52.40
2023-04-24T12:30:03.801Z,52.30
2023-04-24T12:32:30.658Z,52.40
2023-04-24T12:34:58.223Z,51.80
2023-04-24T12:37:34.293Z,51.50
2023-04-24T12:40:01.730Z,51.30
2023-04-24T12:42:30.075Z,51.30
2023-04-24T12:45:02.150Z,51.00
2023-04-24T12:47:29.289Z,50.50
2023-04-24T12:49:56.389Z,50.30
2023-04-24T12:52:24.977Z,49.80
2023-04-24T12:54:53.433Z,49.40
2023-04-24T12:57:20.273Z,49.70
2023-04-24T12:59:47.040Z,49.50
2023-04-24T13:02:14.064Z,49.40
2023-04-24T13:04:40.874Z,49.60
2023-04-24T13:07:07.740Z,49.60
2023-04-24T13:09:36.560Z,49.20
2023-04-24T13:12:03.570Z,49.20
2023-04-24T13:14:30.318Z,49.20
2023-04-24T13:16:57.110Z,49.40
2023-04-24T13:19:27.934Z,50.10
2023-04-24T13:21:58.481Z,49.50
2023-04-24T13:24:26.086Z,49.40
2023-04-24T13:26:53.862Z,49.50
2023-04-24T13:29:20.926Z,49.50
2023-04-24T13:31:48.239Z,49.30
2023-04-24T13:34:15.109Z,48.80
2023-04-24T13:36:41.917Z,48.70
2023-04-24T13:39:08.798Z,48.60
2023-04-24T13:41:37.169Z,47.70
2023-04-24T13:44:04.700Z,46.80
2023-04-24T13:46:31.772Z,46.80
2023-04-24T13:48:58.937Z,46.70
2023-04-24T13:51:30.285Z,46.10
2023-04-24T13:53:57.112Z,46.00
2023-04-24T13:56:24.107Z,45.50
2023-04-24T13:58:50.933Z,45.60
2023-04-24T14:01:18.149Z,45.60
2023-04-24T14:03:45.216Z,45.80
2023-04-24T14:06:12.366Z,45.10
2023-04-24T14:08:39.255Z,45.50
2023-04-24T14:11:05.966Z,45.70
2023-04-24T14:13:32.971Z,45.10
2023-04-24T14:15:59.848Z,45.50
2023-04-24T14:18:27.773Z,45.20
2023-04-24T14:20:54.512Z,45.40
2023-04-24T14:23:21.339Z,45.60
2023-04-24T14:25:51.824Z,45.50
2023-04-24T14:28:19.954Z,45.40
2023-04-24T14:30:47.279Z,44.80
2023-04-24T14:33:14.148Z,44.70
2023-04-24T14:35:44.822Z,44.60
2023-04-24T14:38:11.970Z,43.90
2023-04-24T14:43:09.000Z,44.20
2023-04-24T14:45:36.187Z,43.70
2023-04-24T14:48:03.182Z,43.80
2023-04-24T14:50:30.064Z,43.70
2023-04-24T14:52:58.615Z,43.60
2023-04-24T14:55:27.218Z,43.40
2023-04-24T14:57:55.309Z,43.70
2023-04-24T15:00:24.291Z,43.40
2023-04-24T15:02:51.211Z,43.00
2023-04-24T15:05:18.352Z,43.50
2023-04-24T15:07:46.512Z,43.00
2023-04-24T15:10:13.425Z,43.00
2023-04-24T15:12:40.225Z,43.20
2023-04-24T15:15:07.756Z,42.90
2023-04-24T15:17:34.756Z,42.70
2023-04-24T15:20:01.989Z,42.90
2023-04-24T15:22:28.840Z,43.00
2023-04-24T15:24:55.611Z,44.10
2023-04-24T15:27:22.400Z,43.90
2023-04-24T15:29:49.160Z,44.70
2023-04-24T15:32:15.955Z,45.20
2023-04-24T15:34:43.067Z,45.80
2023-04-24T15:37:10.401Z,46.40
2023-04-24T15:39:37.705Z,46.60
2023-04-24T15:42:04.617Z,46.80
2023-04-24T15:44:31.419Z,46.70
2023-04-24T15:47:01.657Z,46.60
2023-04-24T15:49:28.397Z,46.60
2023-04-24T15:51:55.189Z,46.40
2023-04-24T15:54:22.071Z,46.60
2023-04-24T15:56:50.927Z,46.60
2023-04-24T15:59:18.404Z,46.40
2023-04-24T16:01:45.247Z,46.20
2023-04-24T16:04:12.331Z,46.40
2023-04-24T16:06:39.395Z,45.90
2023-04-24T16:09:06.502Z,46.60
2023-04-24T16:11:36.433Z,45.40
2023-04-24T16:14:03.298Z,45.20
2023-04-24T16:16:30.204Z,45.60
2023-04-24T16:18:57.063Z,45.10
2023-04-24T16:21:24.484Z,43.90
2023-04-24T16:23:51.217Z,44.00
2023-04-24T16:26:18.347Z,44.00
2023-04-24T16:28:45.080Z,43.70
2023-04-24T16:31:11.991Z,43.70
2023-04-24T16:33:39.822Z,43.60
2023-04-24T16:36:07.618Z,42.70
2023-04-24T16:38:34.955Z,42.70
2023-04-24T16:41:01.747Z,43.20
2023-04-24T16:43:28.463Z,42.50
2023-04-24T16:45:55.261Z,43.40
2023-04-24T16:48:22.000Z,42.10
2023-04-24T16:50:48.713Z,41.50
2023-04-24T16:53:15.456Z,41.60
2023-04-24T16:55:42.260Z,41.60
2023-04-24T16:58:08.943Z,41.40
2023-04-24T17:00:36.768Z,41.30
2023-04-24T17:03:03.852Z,41.30
2023-04-24T17:05:30.955Z,41.30
2023-04-24T17:07:57.730Z,41.40
2023-04-24T17:10:24.531Z,41.40
2023-04-24T17:12:51.453Z,41.40
2023-04-24T17:15:18.187Z,41.30
2023-04-24T17:17:46.198Z,41.30
2023-04-24T17:20:22.291Z,41.30
2023-04-24T17:22:50.687Z,41.30
2023-04-24T17:25:17.710Z,41.10
2023-04-24T17:27:45.215Z,41.10
2023-04-24T17:30:12.476Z,41.30
2023-04-24T17:32:39.208Z,41.10
2023-04-24T17:35:07.090Z,40.60
2023-04-24T17:37:34.309Z,41.10
2023-04-24T17:40:01.114Z,42.10
2023-04-24T17:42:27.846Z,42.60
2023-04-24T17:44:54.536Z,42.80
2023-04-24T17:47:22.382Z,43.10
2023-04-24T17:49:49.169Z,43.10
2023-04-24T17:52:17.547Z,42.60
2023-04-24T17:54:44.402Z,42.70
2023-04-24T17:57:11.393Z,42.50
2023-04-24T17:59:38.128Z,41.60
2023-04-24T18:02:04.823Z,41.40
2023-04-24T18:04:31.844Z,41.20
2023-04-24T18:06:58.672Z,41.00
2023-04-24T18:09:25.413Z,41.50
2023-04-24T18:11:52.243Z,41.50
2023-04-24T18:14:19.032Z,41.60
2023-04-24T18:16:45.791Z,40.80
2023-04-24T18:19:12.712Z,41.00
2023-04-24T18:21:39.455Z,41.00
2023-04-24T18:24:06.370Z,41.20
2023-04-24T18:26:33.147Z,41.10
2023-04-24T18:28:59.826Z,41.10
2023-04-24T18:31:26.724Z,41.10
2023-04-24T18:33:55.299Z,41.20
2023-04-24T18:36:21.964Z,41.10
2023-04-24T18:39:01.029Z,41.10
2023-04-24T18:41:27.773Z,40.70
2023-04-24T18:43:57.928Z,41.20
2023-04-24T18:46:25.175Z,40.80
2023-04-24T18:48:51.848Z,41.20
2023-04-24T18:51:18.626Z,41.10
2023-04-24T18:53:45.498Z,41.10
2023-04-24T18:56:13.034Z,40.70
2023-04-24T18:58:44.224Z,40.70
2023-04-24T19:01:11.158Z,40.70
2023-04-24T19:03:38.199Z,40.70
2023-04-24T19:06:05.209Z,40.50
2023-04-24T19:08:32.001Z,40.50
2023-04-24T19:10:59.510Z,40.60
2023-04-24T19:13:26.239Z,41.00
2023-04-24T19:15:52.940Z,41.10
2023-04-24T19:18:19.644Z,40.90
2023-04-24T19:20:46.573Z,41.10
2023-04-24T19:23:13.468Z,40.80
2023-04-24T19:25:40.444Z,41.10
2023-04-24T19:28:07.667Z,41.20
2023-04-24T19:30:35.298Z,41.70
2023-04-24T19:33:02.101Z,41.10
2023-04-24T19:35:28.871Z,41.20
2023-04-24T19:37:55.660Z,41.70
2023-04-24T19:40:22.446Z,41.10
2023-04-24T19:42:49.581Z,41.20
2023-04-24T19:45:16.457Z,41.10
2023-04-24T19:47:43.393Z,41.10
2023-04-24T19:50:10.665Z,41.00
2023-04-24T19:52:37.657Z,41.20
2023-04-24T19:55:04.948Z,41.10
2023-04-24T19:57:31.703Z,41.00
2023-04-24T19:59:58.487Z,41.00
2023-04-24T20:02:25.775Z,41.10
2023-04-24T20:04:52.866Z,41.10
2023-04-24T20:07:19.722Z,41.00
2023-04-24T20:09:46.800Z,41.30
2023-04-24T20:12:13.628Z,41.30
2023-04-24T20:14:40.746Z,41.80
2023-04-24T20:17:07.783Z,41.80
2023-04-24T20:19:34.574Z,41.90
2023-04-24T20:22:01.374Z,41.70
2023-04-24T20:24:28.800Z,41.90
2023-04-24T20:26:57.018Z,41.90
2023-04-24T20:29:23.933Z,42.00
2023-04-24T20:31:50.720Z,42.10
2023-04-24T20:34:17.464Z,41.80
2023-04-24T20:36:48.886Z,41.80
2023-04-24T20:39:16.893Z,41.80
2023-04-24T20:41:46.270Z,42.00
2023-04-24T20:44:13.138Z,42.10
2023-04-24T20:46:39.917Z,42.00
2023-04-24T20:49:06.714Z,42.00
2023-04-24T20:51:34.130Z,42.10
2023-04-24T20:54:01.476Z,41.90
2023-04-24T20:56:28.337Z,42.10
2023-04-24T20:58:57.214Z,42.00
2023-04-24T21:01:24.316Z,42.00
2023-04-24T21:03:52.777Z,41.60
2023-04-24T21:06:20.066Z,41.40
2023-04-24T21:08:46.794Z,41.60
2023-04-24T21:11:13.491Z,41.50
2023-04-24T21:13:40.169Z,41.60
2023-04-24T21:16:07.048Z,41.80
2023-04-24T21:18:34.048Z,41.70
2023-04-24T21:21:00.861Z,41.60
2023-04-24T21:23:27.558Z,41.40
2023-04-24T21:25:54.452Z,41.60
2023-04-24T21:28:21.193Z,41.50
2023-04-24T21:30:47.884Z,42.40
2023-04-24T21:33:14.653Z,41.70
2023-04-24T21:35:41.406Z,41.60
2023-04-24T21:38:08.158Z,41.60
2023-04-24T21:40:35.181Z,41.40
2023-04-24T21:43:02.294Z,41.70
2023-04-24T21:45:29.199Z,41.60
2023-04-24T21:47:56.033Z,41.80
2023-04-24T21:50:22.805Z,41.70
2023-04-24T21:52:49.625Z,42.00
2023-04-24T21:55:16.412Z,41.90
2023-04-24T21:57:43.246Z,42.00
2023-04-24T22:00:11.394Z,42.00
2023-04-24T22:02:38.392Z,41.80
2023-04-24T22:05:05.814Z,41.80
2023-04-24T22:07:36.423Z,41.90
2023-04-24T22:10:05.201Z,41.80
2023-04-24T22:12:32.038Z,42.10
2023-04-24T22:14:58.777Z,42.10
2023-04-24T22:17:25.569Z,42.10
2023-04-24T22:19:52.592Z,42.40
2023-04-24T22:22:19.548Z,42.30
2023-04-24T22:24:46.768Z,42.30
2023-04-24T22:27:13.488Z,42.10
2023-04-24T22:29:40.312Z,42.40
2023-04-24T22:32:07.078Z,42.10
2023-04-24T22:34:33.796Z,42.40
2023-04-24T22:37:00.538Z,42.40
2023-04-24T22:39:27.323Z,42.20
2023-04-24T22:41:54.431Z,42.10
2023-04-24T22:44:21.715Z,42.10
2023-04-24T22:46:48.651Z,42.40
2023-04-24T22:49:16.340Z,42.40
2023-04-24T22:51:43.948Z,42.60
2023-04-24T22:54:11.231Z,42.70
2023-04-24T22:56:38.953Z,42.60
2023-04-24T22:59:06.604Z,42.70
2023-04-24T23:01:33.508Z,42.80
2023-04-24T23:04:00.353Z,42.90
2023-04-24T23:06:28.055Z,42.90
2023-04-24T23:08:54.829Z,43.10
2023-04-24T23:11:21.998Z,43.30
2023-04-24T23:13:49.648Z,43.50
2023-04-24T23:16:16.668Z,43.60
2023-04-24T23:18:43.462Z,43.30
2023-04-24T23:21:10.199Z,43.30
2023-04-24T23:23:36.931Z,43.40
2023-04-24T23:26:03.688Z,43.50
2023-04-24T23:28:30.427Z,43.60
2023-04-24T23:30:57.290Z,43.60
2023-04-24T23:33:23.982Z,43.60
2023-04-24T23:35:51.190Z,43.40
2023-04-24T23:38:17.939Z,43.40
2023-04-24T23:40:44.689Z,43.40
2023-04-24T23:43:12.504Z,43.60
2023-04-24T23:45:40.562Z,43.30
2023-04-24T23:48:07.471Z,43.70
2023-04-24T23:50:34.471Z,43.60
2023-04-24T23:53:01.569Z,43.90
2023-04-24T23:55:28.326Z,43.90
2023-04-24T23:57:55.519Z,43.60
